sensor_id;sensor_type;location;lat;lon;timestamp;pressure;altitude;pressure_sealevel;temperature;humidity
51099;BME280;37146;48.210;16.234;2023-02-02T00:01:11;98771.44;;;0.34;100.00
51099;BME280;37146;48.210;16.234;2023-02-02T00:03:36;98783.78;;;0.28;100.00
51099;BME280;37146;48.210;16.234;2023-02-02T00:06:02;98793.63;;;0.12;100.00
51099;BME280;37146;48.210;16.234;2023-02-02T00:08:28;98784.78;;;0.18;100.00
51099;BME280;37146;48.210;16.234;2023-02-02T00:10:53;98790.72;;;0.34;100.00
51099;BME280;37146;48.210;16.234;2023-02-02T00:13:19;98776.09;;;0.16;100.00
51099;BME280;37146;48.210;16.234;2023-02-02T00:15:44;98771.84;;;0.04;100.00
51099;BME280;37146;48.210;16.234;2023-02-02T00:18:09;98770.22;;;-0.06;100.00
51099;BME280;37146;48.210;16.234;2023-02-02T00:20:34;98755.22;;;0.01;100.00
51099;BME280;37146;48.210;16.234;2023-02-02T00:23:00;98744.00;;;-0.12;100.00
51099;BME280;37146;48.210;16.234;2023-02-02T00:25:25;98727.28;;;-0.08;100.00
51099;BME280;37146;48.210;16.234;2023-02-02T00:27:51;98720.94;;;0.07;100.00
51099;BME280;37146;48.210;16.234;2023-02-02T00:30:16;98715.75;;;0.02;100.00
51099;BME280;37146;48.210;16.234;2023-02-02T00:32:41;98714.09;;;-0.04;100.00
51099;BME280;37146;48.210;16.234;2023-02-02T00:35:07;98723.59;;;0.07;100.00
51099;BME280;37146;48.210;16.234;2023-02-02T00:37:33;98716.72;;;-0.04;100.00
51099;BME280;37146;48.210;16.234;2023-02-02T00:39:58;98707.94;;;-0.01;100.00
51099;BME280;37146;48.210;16.234;2023-02-02T00:42:23;98709.63;;;0.05;100.00
51099;BME280;37146;48.210;16.234;2023-02-02T00:44:48;98712.41;;;-0.09;100.00
51099;BME280;37146;48.210;16.234;2023-02-02T00:47:32;98717.47;;;0.06;100.00
51099;BME280;37146;48.210;16.234;2023-02-02T00:49:57;98716.66;;;0.01;100.00
51099;BME280;37146;48.210;16.234;2023-02-02T00:52:23;98706.03;;;0.09;100.00
51099;BME280;37146;48.210;16.234;2023-02-02T00:54:48;98706.97;;;0.05;100.00
51099;BME280;37146;48.210;16.234;2023-02-02T00:57:13;98694.56;;;0.14;100.00
51099;BME280;37146;48.210;16.234;2023-02-02T00:59:39;98726.09;;;0.14;100.00
51099;BME280;37146;48.210;16.234;2023-02-02T01:02:04;98715.03;;;-0.09;100.00
51099;BME280;37146;48.210;16.234;2023-02-02T01:04:29;98714.09;;;-0.04;100.00
51099;BME280;37146;48.210;16.234;2023-02-02T01:06:55;98719.38;;;-0.05;100.00
51099;BME280;37146;48.210;16.234;2023-02-02T01:09:20;98723.78;;;-0.06;100.00
51099;BME280;37146;48.210;16.234;2023-02-02T01:11:45;98735.13;;;-0.04;100.00
51099;BME280;37146;48.210;16.234;2023-02-02T01:14:10;98730.72;;;-0.02;100.00
51099;BME280;37146;48.210;16.234;2023-02-02T01:16:36;98738.03;;;-0.25;100.00
51099;BME280;37146;48.210;16.234;2023-02-02T01:19:01;98734.50;;;-0.24;100.00
51099;BME280;37146;48.210;16.234;2023-02-02T01:21:26;98738.00;;;-0.22;100.00
51099;BME280;37146;48.210;16.234;2023-02-02T01:23:51;98742.22;;;-0.10;100.00
51099;BME280;37146;48.210;16.234;2023-02-02T01:26:17;98750.00;;;-0.03;100.00
51099;BME280;37146;48.210;16.234;2023-02-02T01:28:42;98735.97;;;-0.02;100.00
51099;BME280;37146;48.210;16.234;2023-02-02T01:31:09;98719.53;;;-0.18;100.00
51099;BME280;37146;48.210;16.234;2023-02-02T01:33:34;98684.59;;;-0.27;100.00
51099;BME280;37146;48.210;16.234;2023-02-02T01:36:02;98712.56;;;-0.22;100.00
51099;BME280;37146;48.210;16.234;2023-02-02T01:38:27;98702.06;;;-0.22;100.00
51099;BME280;37146;48.210;16.234;2023-02-02T01:40:53;98706.47;;;-0.25;100.00
51099;BME280;37146;48.210;16.234;2023-02-02T01:45:46;98690.78;;;-0.28;100.00
51099;BME280;37146;48.210;16.234;2023-02-02T01:48:11;98702.16;;;-0.28;100.00
51099;BME280;37146;48.210;16.234;2023-02-02T01:50:36;98703.00;;;-0.27;100.00
51099;BME280;37146;48.210;16.234;2023-02-02T01:53:02;98703.84;;;-0.24;100.00
51099;BME280;37146;48.210;16.234;2023-02-02T01:55:29;98693.22;;;-0.14;100.00
51099;BME280;37146;48.210;16.234;2023-02-02T01:58:29;98696.69;;;-0.14;100.00
51099;BME280;37146;48.210;16.234;2023-02-02T02:00:47;98699.09;;;0.05;100.00
51099;BME280;37146;48.210;16.234;2023-02-02T02:03:16;98705.25;;;0.02;100.00
51099;BME280;37146;48.210;16.234;2023-02-02T02:05:56;98718.25;;;0.11;100.00
51099;BME280;37146;48.210;16.234;2023-02-02T02:08:27;98715.66;;;0.10;100.00
51099;BME280;37146;48.210;16.234;2023-02-02T02:10:53;98724.53;;;0.01;100.00
51099;BME280;37146;48.210;16.234;2023-02-02T02:13:19;98731.53;;;0.02;100.00
51099;BME280;37146;48.210;16.234;2023-02-02T02:15:56;98727.06;;;0.09;100.00
51099;BME280;37146;48.210;16.234;2023-02-02T02:21:47;98721.84;;;0.07;100.00
51099;BME280;37146;48.210;16.234;2023-02-02T02:32:50;98725.44;;;0.00;100.00
51099;BME280;37146;48.210;16.234;2023-02-02T02:40:25;98706.81;;;0.15;100.00
51099;BME280;37146;48.210;16.234;2023-02-02T02:43:05;98720.94;;;0.08;100.00
51099;BME280;37146;48.210;16.234;2023-02-02T02:45:31;98711.31;;;0.06;100.00
51099;BME280;37146;48.210;16.234;2023-02-02T02:47:57;98714.00;;;0.01;100.00
51099;BME280;37146;48.210;16.234;2023-02-02T02:50:22;98721.84;;;0.07;100.00
51099;BME280;37146;48.210;16.234;2023-02-02T02:52:48;98718.34;;;0.05;100.00
51099;BME280;37146;48.210;16.234;2023-02-02T02:55:16;98715.84;;;-0.04;100.00
51099;BME280;37146;48.210;16.234;2023-02-02T03:00:24;98706.41;;;-0.21;100.00
51099;BME280;37146;48.210;16.234;2023-02-02T03:03:37;98709.00;;;-0.18;100.00
51099;BME280;37146;48.210;16.234;2023-02-02T03:10:29;98709.13;;;-0.24;100.00
51099;BME280;37146;48.210;16.234;2023-02-02T03:12:55;98709.88;;;-0.16;100.00
51099;BME280;37146;48.210;16.234;2023-02-02T03:15:21;98708.97;;;-0.14;100.00
51099;BME280;37146;48.210;16.234;2023-02-02T03:17:47;98705.53;;;-0.20;100.00
51099;BME280;37146;48.210;16.234;2023-02-02T03:20:13;98708.94;;;-0.10;100.00
51099;BME280;37146;48.210;16.234;2023-02-02T03:22:39;98706.38;;;-0.18;100.00
51099;BME280;37146;48.210;16.234;2023-02-02T03:25:05;98710.81;;;-0.21;100.00
51099;BME280;37146;48.210;16.234;2023-02-02T03:27:30;98709.22;;;-0.33;100.00
51099;BME280;37146;48.210;16.234;2023-02-02T03:29:56;98716.09;;;-0.24;100.00
51099;BME280;37146;48.210;16.234;2023-02-02T03:32:21;98721.31;;;-0.18;100.00
51099;BME280;37146;48.210;16.234;2023-02-02T03:34:47;98707.44;;;-0.31;100.00
51099;BME280;37146;48.210;16.234;2023-02-02T03:37:12;98717.06;;;-0.28;100.00
51099;BME280;37146;48.210;16.234;2023-02-02T03:39:37;98721.38;;;-0.23;100.00
51099;BME280;37146;48.210;16.234;2023-02-02T03:42:02;98724.97;;;-0.32;100.00
51099;BME280;37146;48.210;16.234;2023-02-02T03:44:28;98726.56;;;-0.20;100.00
51099;BME280;37146;48.210;16.234;2023-02-02T03:46:53;98725.69;;;-0.22;100.00
51099;BME280;37146;48.210;16.234;2023-02-02T03:49:18;98732.72;;;-0.19;100.00
51099;BME280;37146;48.210;16.234;2023-02-02T03:51:43;98719.56;;;-0.19;100.00
51099;BME280;37146;48.210;16.234;2023-02-02T03:54:09;98716.13;;;-0.27;100.00
51099;BME280;37146;48.210;16.234;2023-02-02T03:56:34;98717.91;;;-0.28;100.00
51099;BME280;37146;48.210;16.234;2023-02-02T03:58:59;98717.00;;;-0.25;100.00
51099;BME280;37146;48.210;16.234;2023-02-02T04:01:26;98717.78;;;-0.19;100.00
51099;BME280;37146;48.210;16.234;2023-02-02T04:03:52;98720.38;;;-0.16;100.00
51099;BME280;37146;48.210;16.234;2023-02-02T04:06:17;98716.03;;;-0.20;100.00
51099;BME280;37146;48.210;16.234;2023-02-02T04:08:44;98719.56;;;-0.21;100.00
51099;BME280;37146;48.210;16.234;2023-02-02T04:11:09;98731.94;;;-0.29;100.00
51099;BME280;37146;48.210;16.234;2023-02-02T04:13:34;98736.41;;;-0.36;100.00
51099;BME280;37146;48.210;16.234;2023-02-02T04:16:00;98736.22;;;-0.20;100.00
51099;BME280;37146;48.210;16.234;2023-02-02T04:18:25;98740.69;;;-0.27;100.00
51099;BME280;37146;48.210;16.234;2023-02-02T04:20:54;98739.78;;;-0.27;100.00
51099;BME280;37146;48.210;16.234;2023-02-02T04:23:20;98744.16;;;-0.25;100.00
51099;BME280;37146;48.210;16.234;2023-02-02T04:25:49;98735.50;;;-0.33;100.00
51099;BME280;37146;48.210;16.234;2023-02-02T04:28:14;98738.97;;;-0.31;100.00
51099;BME280;37146;48.210;16.234;2023-02-02T04:30:39;98742.38;;;-0.24;100.00
51099;BME280;37146;48.210;16.234;2023-02-02T04:33:04;98738.81;;;-0.19;100.00
51099;BME280;37146;48.210;16.234;2023-02-02T04:35:30;98739.03;;;-0.36;100.00
51099;BME280;37146;48.210;16.234;2023-02-02T04:37:55;98752.03;;;-0.23;100.00
51099;BME280;37146;48.210;16.234;2023-02-02T04:40:20;98739.72;;;-0.20;100.00
51099;BME280;37146;48.210;16.234;2023-02-02T04:42:45;98732.63;;;-0.11;100.00
51099;BME280;37146;48.210;16.234;2023-02-02T04:45:11;98735.28;;;-0.16;100.00
51099;BME280;37146;48.210;16.234;2023-02-02T04:47:36;98728.19;;;-0.09;100.00
51099;BME280;37146;48.210;16.234;2023-02-02T04:50:01;98732.63;;;-0.11;100.00
51099;BME280;37146;48.210;16.234;2023-02-02T04:52:27;98730.75;;;-0.03;100.00
51099;BME280;37146;48.210;16.234;2023-02-02T04:54:52;98735.94;;;0.02;100.00
51099;BME280;37146;48.210;16.234;2023-02-02T04:57:18;98731.44;;;0.10;100.00
51099;BME280;37146;48.210;16.234;2023-02-02T04:59:43;98730.50;;;0.12;100.00
51099;BME280;37146;48.210;16.234;2023-02-02T05:02:08;98730.56;;;0.11;100.00
51099;BME280;37146;48.210;16.234;2023-02-02T05:04:34;98728.78;;;0.11;100.00
51099;BME280;37146;48.210;16.234;2023-02-02T05:06:59;98736.72;;;0.08;100.00
51099;BME280;37146;48.210;16.234;2023-02-02T05:09:24;98734.03;;;0.13;100.00
51099;BME280;37146;48.210;16.234;2023-02-02T05:11:49;98740.13;;;0.17;100.00
51099;BME280;37146;48.210;16.234;2023-02-02T05:14:15;98731.38;;;0.14;100.00
51099;BME280;37146;48.210;16.234;2023-02-02T05:16:42;98739.25;;;0.14;100.00
51099;BME280;37146;48.210;16.234;2023-02-02T05:19:08;98751.47;;;0.20;100.00
51099;BME280;37146;48.210;16.234;2023-02-02T05:21:34;98753.16;;;0.23;100.00
51099;BME280;37146;48.210;16.234;2023-02-02T05:23:59;98746.13;;;0.25;100.00
51099;BME280;37146;48.210;16.234;2023-02-02T05:26:25;98746.97;;;0.27;100.00
51099;BME280;37146;48.210;16.234;2023-02-02T05:28:51;98738.25;;;0.25;100.00
51099;BME280;37146;48.210;16.234;2023-02-02T05:31:17;98743.56;;;0.22;100.00
51099;BME280;37146;48.210;16.234;2023-02-02T05:33:42;98747.84;;;0.29;100.00
51099;BME280;37146;48.210;16.234;2023-02-02T05:36:08;98755.03;;;0.14;100.00
51099;BME280;37146;48.210;16.234;2023-02-02T05:38:34;98749.81;;;0.13;100.00
51099;BME280;37146;48.210;16.234;2023-02-02T05:40:59;98752.53;;;0.05;100.00
51099;BME280;37146;48.210;16.234;2023-02-02T05:43:25;98754.31;;;0.03;100.00
51099;BME280;37146;48.210;16.234;2023-02-02T05:45:50;98752.56;;;0.02;100.00
51099;BME280;37146;48.210;16.234;2023-02-02T05:48:15;98756.94;;;0.05;100.00
51099;BME280;37146;48.210;16.234;2023-02-02T05:50:41;98755.22;;;0.01;100.00
51099;BME280;37146;48.210;16.234;2023-02-02T05:53:07;98754.31;;;0.03;100.00
51099;BME280;37146;48.210;16.234;2023-02-02T05:55:32;98758.66;;;0.06;100.00
51099;BME280;37146;48.210;16.234;2023-02-02T05:57:58;98766.59;;;0.01;100.00
51099;BME280;37146;48.210;16.234;2023-02-02T06:00:23;98767.34;;;0.12;100.00
51099;BME280;37146;48.210;16.234;2023-02-02T06:02:48;98767.41;;;0.08;100.00
51099;BME280;37146;48.210;16.234;2023-02-02T06:05:13;98771.78;;;0.10;100.00
51099;BME280;37146;48.210;16.234;2023-02-02T06:07:38;98779.63;;;0.12;100.00
51099;BME280;37146;48.210;16.234;2023-02-02T06:10:04;98781.38;;;0.13;100.00
51099;BME280;37146;48.210;16.234;2023-02-02T06:12:29;98781.34;;;0.16;100.00
51099;BME280;37146;48.210;16.234;2023-02-02T06:14:55;98779.59;;;0.15;100.00
51099;BME280;37146;48.210;16.234;2023-02-02T06:17:20;98785.75;;;0.12;100.00
51099;BME280;37146;48.210;16.234;2023-02-02T06:19:46;98785.81;;;0.08;100.00
51099;BME280;37146;48.210;16.234;2023-02-02T06:22:11;98793.56;;;0.19;100.00
51099;BME280;37146;48.210;16.234;2023-02-02T06:24:36;98794.34;;;0.27;100.00
51099;BME280;37146;48.210;16.234;2023-02-02T06:27:01;98799.59;;;0.27;100.00
51099;BME280;37146;48.210;16.234;2023-02-02T06:29:26;98804.84;;;0.27;100.00
51099;BME280;37146;48.210;16.234;2023-02-02T06:31:52;98810.09;;;0.30;100.00
51099;BME280;37146;48.210;16.234;2023-02-02T06:34:17;98817.03;;;0.34;100.00
51099;BME280;37146;48.210;16.234;2023-02-02T06:36:42;98819.56;;;0.43;100.00
51099;BME280;37146;48.210;16.234;2023-02-02T06:39:07;98813.38;;;0.44;100.00
51099;BME280;37146;48.210;16.234;2023-02-02T06:41:33;98823.03;;;0.44;100.00
51099;BME280;37146;48.210;16.234;2023-02-02T06:43:59;98823.84;;;0.51;100.00
51099;BME280;37146;48.210;16.234;2023-02-02T06:46:24;98829.91;;;0.54;100.00
51099;BME280;37146;48.210;16.234;2023-02-02T06:48:49;98833.44;;;0.55;100.00
51099;BME280;37146;48.210;16.234;2023-02-02T06:51:15;98837.00;;;0.51;100.00
51099;BME280;37146;48.210;16.234;2023-02-02T06:53:40;98843.25;;;0.43;100.00
51099;BME280;37146;48.210;16.234;2023-02-02T06:56:06;98837.84;;;0.53;100.00
51099;BME280;37146;48.210;16.234;2023-02-02T06:58:31;98838.69;;;0.55;100.00
51099;BME280;37146;48.210;16.234;2023-02-02T07:01:03;98850.97;;;0.54;100.00
51099;BME280;37146;48.210;16.234;2023-02-02T07:03:29;98847.44;;;0.55;100.00
51099;BME280;37146;48.210;16.234;2023-02-02T07:05:54;98850.91;;;0.59;100.00
51099;BME280;37146;48.210;16.234;2023-02-02T07:08:19;98849.97;;;0.63;100.00
51099;BME280;37146;48.210;16.234;2023-02-02T07:10:45;98854.28;;;0.67;100.00
51099;BME280;37146;48.210;16.234;2023-02-02T07:13:10;98862.28;;;0.61;100.00
51099;BME280;37146;48.210;16.234;2023-02-02T07:15:39;98855.25;;;0.63;100.00
51099;BME280;37146;48.210;16.234;2023-02-02T07:18:04;98859.50;;;0.73;100.00
51099;BME280;37146;48.210;16.234;2023-02-02T07:20:30;98863.06;;;0.68;100.00
51099;BME280;37146;48.210;16.234;2023-02-02T07:22:55;98859.63;;;0.63;100.00
51099;BME280;37146;48.210;16.234;2023-02-02T07:25:21;98861.25;;;0.71;100.00
51099;BME280;37146;48.210;16.234;2023-02-02T07:27:46;98859.53;;;0.70;100.00
51099;BME280;37146;48.210;16.234;2023-02-02T07:30:14;98864.53;;;0.87;100.00
51099;BME280;37146;48.210;16.234;2023-02-02T07:32:44;98868.06;;;0.88;100.00
51099;BME280;37146;48.210;16.234;2023-02-02T07:35:10;98874.13;;;0.93;100.00
51099;BME280;37146;48.210;16.234;2023-02-02T07:37:35;98866.28;;;0.88;100.00
51099;BME280;37146;48.210;16.234;2023-02-02T07:40:00;98874.09;;;0.96;100.00
51099;BME280;37146;48.210;16.234;2023-02-02T07:42:25;98884.44;;;1.08;100.00
51099;BME280;37146;48.210;16.234;2023-02-02T07:44:50;98880.66;;;1.27;100.00
51099;BME280;37146;48.210;16.234;2023-02-02T07:47:16;98873.78;;;1.68;100.00
51099;BME280;37146;48.210;16.234;2023-02-02T07:49:41;98894.38;;;1.46;100.00
51099;BME280;37146;48.210;16.234;2023-02-02T07:52:06;98888.09;;;1.54;100.00
51099;BME280;37146;48.210;16.234;2023-02-02T07:54:31;98889.97;;;1.96;100.00
51099;BME280;37146;48.210;16.234;2023-02-02T07:56:57;98898.06;;;1.87;100.00
51099;BME280;37146;48.210;16.234;2023-02-02T07:59:22;98886.72;;;1.82;100.00
51099;BME280;37146;48.210;16.234;2023-02-02T08:01:47;98894.47;;;1.91;100.00
51099;BME280;37146;48.210;16.234;2023-02-02T08:04:13;98891.78;;;1.94;100.00
51099;BME280;37146;48.210;16.234;2023-02-02T08:06:38;98898.91;;;2.77;100.00
51099;BME280;37146;48.210;16.234;2023-02-02T08:09:05;98898.47;;;2.56;100.00
51099;BME280;37146;48.210;16.234;2023-02-02T08:11:31;98902.50;;;2.32;100.00
51099;BME280;37146;48.210;16.234;2023-02-02T08:13:57;98903.91;;;2.48;100.00
51099;BME280;37146;48.210;16.234;2023-02-02T08:16:23;98897.13;;;3.54;100.00
51099;BME280;37146;48.210;16.234;2023-02-02T08:18:49;98893.25;;;2.96;100.00
51099;BME280;37146;48.210;16.234;2023-02-02T08:21:14;98893.00;;;3.77;100.00
51099;BME280;37146;48.210;16.234;2023-02-02T08:23:40;98906.81;;;2.78;100.00
51099;BME280;37146;48.210;16.234;2023-02-02T08:28:31;98898.22;;;2.69;100.00
51099;BME280;37146;48.210;16.234;2023-02-02T08:30:56;98903.00;;;2.51;100.00
51099;BME280;37146;48.210;16.234;2023-02-02T08:33:21;98899.22;;;2.19;100.00
51099;BME280;37146;48.210;16.234;2023-02-02T08:35:46;98899.38;;;2.11;100.00
51099;BME280;37146;48.210;16.234;2023-02-02T08:38:12;98906.72;;;1.95;100.00
51099;BME280;37146;48.210;16.234;2023-02-02T08:40:37;98903.19;;;1.95;100.00
51099;BME280;37146;48.210;16.234;2023-02-02T08:43:02;98915.78;;;1.79;100.00
51099;BME280;37146;48.210;16.234;2023-02-02T08:45:28;98904.53;;;1.67;100.00
51099;BME280;37146;48.210;16.234;2023-02-02T08:47:53;98919.31;;;1.78;100.00
51099;BME280;37146;48.210;16.234;2023-02-02T08:50:18;98919.53;;;1.65;100.00
51099;BME280;37146;48.210;16.234;2023-02-02T08:52:44;98919.50;;;1.67;100.00
51099;BME280;37146;48.210;16.234;2023-02-02T08:55:09;98924.06;;;1.57;100.00
51099;BME280;37146;48.210;16.234;2023-02-02T08:57:34;98925.78;;;1.58;100.00
51099;BME280;37146;48.210;16.234;2023-02-02T08:59:59;98918.97;;;1.45;100.00
51099;BME280;37146;48.210;16.234;2023-02-02T09:02:25;98923.31;;;1.49;100.00
51099;BME280;37146;48.210;16.234;2023-02-02T09:04:50;98936.47;;;1.52;100.00
51099;BME280;37146;48.210;16.234;2023-02-02T09:07:15;98923.41;;;1.44;100.00
51099;BME280;37146;48.210;16.234;2023-02-02T09:09:40;98927.81;;;1.42;100.00
51099;BME280;37146;48.210;16.234;2023-02-02T09:12:06;98927.75;;;1.47;100.00
51099;BME280;37146;48.210;16.234;2023-02-02T09:14:31;98932.97;;;1.50;100.00
51099;BME280;37146;48.210;16.234;2023-02-02T09:16:56;98935.72;;;1.42;100.00
51099;BME280;37146;48.210;16.234;2023-02-02T09:19:21;98945.19;;;1.56;100.00
51099;BME280;37146;48.210;16.234;2023-02-02T09:21:49;98950.50;;;1.54;100.00
51099;BME280;37146;48.210;16.234;2023-02-02T09:24:15;98947.78;;;1.59;100.00
51099;BME280;37146;48.210;16.234;2023-02-02T09:26:41;98948.75;;;1.53;100.00
51099;BME280;37146;48.210;16.234;2023-02-02T09:29:07;98945.09;;;1.60;100.00
51099;BME280;37146;48.210;16.234;2023-02-02T09:31:35;98945.16;;;1.57;100.00
51099;BME280;37146;48.210;16.234;2023-02-02T09:34:04;98960.00;;;1.63;100.00
51099;BME280;37146;48.210;16.234;2023-02-02T09:36:29;98954.72;;;1.64;100.00
51099;BME280;37146;48.210;16.234;2023-02-02T09:38:55;98955.72;;;1.56;100.00
51099;BME280;37146;48.210;16.234;2023-02-02T09:49:33;98952.22;;;1.53;100.00
51099;BME280;37146;48.210;16.234;2023-02-02T09:51:57;98947.91;;;1.49;100.00
51099;BME280;37146;48.210;16.234;2023-02-02T09:54:28;98959.25;;;1.54;100.00
51099;BME280;37146;48.210;16.234;2023-02-02T09:56:57;98957.38;;;1.61;100.00
51099;BME280;37146;48.210;16.234;2023-02-02T09:59:32;98955.59;;;1.62;100.00
51099;BME280;37146;48.210;16.234;2023-02-02T10:02:02;98958.22;;;1.65;100.00
51099;BME280;37146;48.210;16.234;2023-02-02T10:04:34;98955.69;;;1.57;100.00
51099;BME280;37146;48.210;16.234;2023-02-02T10:07:03;98964.41;;;1.61;100.00
51099;BME280;37146;48.210;16.234;2023-02-02T10:09:42;98965.25;;;1.64;100.00
51099;BME280;37146;48.210;16.234;2023-02-02T10:12:16;98958.00;;;1.77;100.00
51099;BME280;37146;48.210;16.234;2023-02-02T10:14:49;98957.06;;;1.80;100.00
51099;BME280;37146;48.210;16.234;2023-02-02T10:19:41;98963.16;;;1.83;100.00
51099;BME280;37146;48.210;16.234;2023-02-02T10:22:11;98966.59;;;1.89;100.00
51099;BME280;37146;48.210;16.234;2023-02-02T10:24:39;98961.28;;;1.92;100.00
51099;BME280;37146;48.210;16.234;2023-02-02T10:27:05;98972.69;;;1.92;100.00
51099;BME280;37146;48.210;16.234;2023-02-02T10:29:40;98954.19;;;1.94;100.00
51099;BME280;37146;48.210;16.234;2023-02-02T10:44:53;98968.88;;;2.10;100.00
51099;BME280;37146;48.210;16.234;2023-02-02T10:47:28;98966.28;;;2.07;100.00
51099;BME280;37146;48.210;16.234;2023-02-02T10:50:36;98959.34;;;2.01;100.00
51099;BME280;37146;48.210;16.234;2023-02-02T10:52:44;98966.47;;;1.96;100.00
51099;BME280;37146;48.210;16.234;2023-02-02T11:02:45;98978.91;;;1.90;100.00
51099;BME280;37146;48.210;16.234;2023-02-02T11:05:29;98969.28;;;1.87;100.00
51099;BME280;37146;48.210;16.234;2023-02-02T11:08:14;98972.84;;;1.83;100.00
51099;BME280;37146;48.210;16.234;2023-02-02T11:10:41;98974.59;;;1.84;100.00
51099;BME280;37146;48.210;16.234;2023-02-02T11:13:07;98976.25;;;1.88;100.00
51099;BME280;37146;48.210;16.234;2023-02-02T11:15:36;98979.06;;;1.80;100.00
51099;BME280;37146;48.210;16.234;2023-02-02T11:18:24;98965.09;;;1.72;100.00
51099;BME280;37146;48.210;16.234;2023-02-02T11:20:51;98976.59;;;1.69;100.00
51099;BME280;37146;48.210;16.234;2023-02-02T11:23:17;98972.09;;;1.76;100.00
51099;BME280;37146;48.210;16.234;2023-02-02T11:25:43;98964.13;;;1.78;100.00
51099;BME280;37146;48.210;16.234;2023-02-02T11:28:09;98973.81;;;1.77;100.00
51099;BME280;37146;48.210;16.234;2023-02-02T11:30:37;98971.09;;;1.82;100.00
51099;BME280;37146;48.210;16.234;2023-02-02T11:35:51;98973.81;;;1.77;100.00
51099;BME280;37146;48.210;16.234;2023-02-02T11:38:16;98966.84;;;1.75;100.00
51099;BME280;37146;48.210;16.234;2023-02-02T11:45:57;98967.75;;;1.74;100.00
51099;BME280;37146;48.210;16.234;2023-02-02T11:48:26;98963.31;;;1.76;100.00
51099;BME280;37146;48.210;16.234;2023-02-02T11:50:52;98957.06;;;1.80;100.00
51099;BME280;37146;48.210;16.234;2023-02-02T11:53:22;98951.91;;;1.74;100.00
51099;BME280;37146;48.210;16.234;2023-02-02T11:55:48;98958.94;;;1.75;100.00
51099;BME280;37146;48.210;16.234;2023-02-02T11:58:17;98957.94;;;1.82;100.00
51099;BME280;37146;48.210;16.234;2023-02-02T12:00:48;98950.81;;;1.85;100.00
51099;BME280;37146;48.210;16.234;2023-02-02T12:03:24;98951.81;;;1.80;100.00
51099;BME280;37146;48.210;16.234;2023-02-02T12:05:50;98950.88;;;1.84;100.00
51099;BME280;37146;48.210;16.234;2023-02-02T12:08:15;98946.34;;;1.89;100.00
51099;BME280;37146;48.210;16.234;2023-02-02T12:10:42;98942.81;;;1.92;100.00
51099;BME280;37146;48.210;16.234;2023-02-02T12:16:17;98941.94;;;1.91;100.00
51099;BME280;37146;48.210;16.234;2023-02-02T12:21:21;98935.72;;;1.95;100.00
51099;BME280;37146;48.210;16.234;2023-02-02T12:26:33;98944.53;;;1.94;100.00
51099;BME280;37146;48.210;16.234;2023-02-02T12:34:28;98928.66;;;1.96;100.00
51099;BME280;37146;48.210;16.234;2023-02-02T12:44:22;98924.00;;;2.10;100.00
51099;BME280;37146;48.210;16.234;2023-02-02T12:46:54;98919.66;;;2.08;100.00
51099;BME280;37146;48.210;16.234;2023-02-02T12:49:34;98926.69;;;2.09;100.00
51099;BME280;37146;48.210;16.234;2023-02-02T12:52:08;98924.09;;;2.06;100.00
51099;BME280;37146;48.210;16.234;2023-02-02T13:02:32;98924.81;;;2.14;100.00
51099;BME280;37146;48.210;16.234;2023-02-02T13:12:33;98917.03;;;2.08;100.00
51099;BME280;37146;48.210;16.234;2023-02-02T13:15:00;98921.38;;;2.10;100.00
51099;BME280;37146;48.210;16.234;2023-02-02T13:17:35;98927.38;;;2.19;100.00
51099;BME280;37146;48.210;16.234;2023-02-02T13:20:04;98925.72;;;2.13;100.00
51099;BME280;37146;48.210;16.234;2023-02-02T13:22:32;98924.94;;;2.08;100.00
51099;BME280;37146;48.210;16.234;2023-02-02T13:25:00;98927.47;;;2.14;100.00
51099;BME280;37146;48.210;16.234;2023-02-02T13:27:28;98925.63;;;2.19;100.00
51099;BME280;37146;48.210;16.234;2023-02-02T13:29:55;98935.41;;;2.11;100.00
51099;BME280;37146;48.210;16.234;2023-02-02T13:32:25;98932.09;;;1.99;100.00
51099;BME280;37146;48.210;16.234;2023-02-02T13:37:27;98925.00;;;2.05;100.00
51099;BME280;37146;48.210;16.234;2023-02-02T13:40:41;98930.31;;;2.03;100.00
51099;BME280;37146;48.210;16.234;2023-02-02T13:42:42;98934.69;;;2.03;100.00
51099;BME280;37146;48.210;16.234;2023-02-02T13:45:16;98936.31;;;2.11;100.00
51099;BME280;37146;48.210;16.234;2023-02-02T13:47:45;98934.66;;;2.04;100.00
51099;BME280;37146;48.210;16.234;2023-02-02T13:50:12;98941.63;;;2.08;100.00
51099;BME280;37146;48.210;16.234;2023-02-02T14:00:24;98949.69;;;2.00;100.00
51099;BME280;37146;48.210;16.234;2023-02-02T14:05:36;98950.75;;;1.92;100.00
51099;BME280;37146;48.210;16.234;2023-02-02T14:08:18;98947.16;;;1.94;100.00
51099;BME280;37146;48.210;16.234;2023-02-02T14:13:16;98956.00;;;1.92;100.00
51099;BME280;37146;48.210;16.234;2023-02-02T14:16:03;98963.16;;;1.83;100.00
51099;BME280;37146;48.210;16.234;2023-02-02T14:19:04;98971.00;;;1.88;100.00
51099;BME280;37146;48.210;16.234;2023-02-02T14:23:56;98979.03;;;1.82;100.00
51099;BME280;37146;48.210;16.234;2023-02-02T14:34:39;98987.06;;;1.76;100.00
51099;BME280;37146;48.210;16.234;2023-02-02T14:42:25;98999.38;;;1.72;100.00
51099;BME280;37146;48.210;16.234;2023-02-02T14:45:21;99008.22;;;1.69;100.00
51099;BME280;37146;48.210;16.234;2023-02-02T14:47:48;99004.81;;;1.63;100.00
51099;BME280;37146;48.210;16.234;2023-02-02T14:50:14;99011.75;;;1.68;100.00
51099;BME280;37146;48.210;16.234;2023-02-02T14:52:41;99015.25;;;1.70;100.00
51099;BME280;37146;48.210;16.234;2023-02-02T14:55:17;99031.09;;;1.67;100.00
51099;BME280;37146;48.210;16.234;2023-02-02T14:57:43;99028.47;;;1.67;100.00
51099;BME280;37146;48.210;16.234;2023-02-02T15:00:21;99024.00;;;1.73;100.00
51099;BME280;37146;48.210;16.234;2023-02-02T15:02:47;99035.44;;;1.72;100.00
51099;BME280;37146;48.210;16.234;2023-02-02T15:05:41;99029.34;;;1.66;100.00